createdAt,value
2018-08-24T00:00:10.590Z,25.45
2018-08-24T00:05:14.404Z,25.30
2018-08-24T00:10:18.156Z,25.37
2018-08-24T00:15:21.981Z,25.27
2018-08-24T00:20:25.800Z,25.30
2018-08-24T00:25:29.612Z,25.28
2018-08-24T00:30:33.503Z,25.34
2018-08-24T00:35:37.308Z,25.26
2018-08-24T00:40:41.134Z,25.18
2018-08-24T00:45:44.873Z,25.25
2018-08-24T00:50:48.735Z,25.25
2018-08-24T00:55:52.589Z,25.23
2018-08-24T01:01:02.683Z,25.17
2018-08-24T01:06:06.655Z,25.18
2018-08-24T01:11:10.459Z,25.17
2018-08-24T01:16:19.425Z,25.18
2018-08-24T01:21:23.207Z,25.16
2018-08-24T01:26:27.005Z,25.18
2018-08-24T01:31:30.802Z,25.19
2018-08-24T01:36:34.595Z,25.13
2018-08-24T01:41:38.401Z,25.08
2018-08-24T01:46:42.210Z,25.13
2018-08-24T01:51:45.937Z,25.11
2018-08-24T01:56:49.707Z,25.10
2018-08-24T02:01:53.514Z,25.06
2018-08-24T02:06:57.443Z,25.09
2018-08-24T02:12:01.191Z,25.08
2018-08-24T02:17:07.530Z,24.99
2018-08-24T02:22:17.157Z,24.99
2018-08-24T02:27:21.020Z,24.99
2018-08-24T02:32:24.747Z,25.03
2018-08-24T02:37:29.919Z,25.06
2018-08-24T02:42:33.699Z,24.98
2018-08-24T02:47:37.556Z,24.93
2018-08-24T02:52:41.324Z,24.77
2018-08-24T02:57:45.120Z,24.66
2018-08-24T03:02:48.999Z,24.69
2018-08-24T03:07:52.784Z,24.73
2018-08-24T03:12:56.598Z,24.63
2018-08-24T03:18:00.351Z,24.63
2018-08-24T03:23:04.166Z,24.49
2018-08-24T03:28:07.866Z,24.43
2018-08-24T03:33:11.686Z,24.44
2018-08-24T03:38:15.477Z,24.57
2018-08-24T03:43:19.480Z,24.43
2018-08-24T03:48:23.251Z,23.70
2018-08-24T03:53:27.009Z,23.37
2018-08-24T03:58:30.770Z,23.15
2018-08-24T04:03:34.578Z,23.01
2018-08-24T04:08:38.403Z,22.65
2018-08-24T04:13:42.209Z,21.62
2018-08-24T04:18:45.990Z,21.54
2018-08-24T04:23:49.890Z,21.87
2018-08-24T04:28:53.665Z,21.80
2018-08-24T04:33:57.419Z,21.83
2018-08-24T04:39:01.271Z,22.09
2018-08-24T04:44:05.074Z,22.27
2018-08-24T04:49:08.958Z,21.82
2018-08-24T04:54:12.700Z,22.46
2018-08-24T04:59:16.459Z,22.85
2018-08-24T05:04:20.227Z,22.90
2018-08-24T05:09:24.080Z,22.80
2018-08-24T05:14:27.863Z,23.12
2018-08-24T05:19:31.719Z,23.15
2018-08-24T05:24:35.479Z,23.27
2018-08-24T05:29:39.255Z,23.43
2018-08-24T05:34:43.085Z,23.26
2018-08-24T05:39:46.901Z,22.56
2018-08-24T05:44:50.732Z,23.21
2018-08-24T05:49:54.561Z,23.51
2018-08-24T05:54:58.379Z,23.30
2018-08-24T06:00:04.127Z,23.44
2018-08-24T06:05:08.756Z,22.61
2018-08-24T06:10:12.670Z,22.75
2018-08-24T06:15:16.723Z,22.68
2018-08-24T06:20:21.681Z,23.04
2018-08-24T06:25:25.512Z,22.21
2018-08-24T06:30:29.311Z,21.94
2018-08-24T06:35:33.074Z,21.85
2018-08-24T06:40:36.788Z,21.87
2018-08-24T06:45:40.626Z,22.10
2018-08-24T06:50:44.426Z,22.18
2018-08-24T06:55:48.232Z,22.38
2018-08-24T07:00:52.093Z,22.22
2018-08-24T07:05:55.965Z,22.20
2018-08-24T07:10:59.699Z,22.24
2018-08-24T07:16:03.425Z,22.50
2018-08-24T07:21:07.186Z,22.20
2018-08-24T07:26:11.091Z,22.22
2018-08-24T07:31:14.981Z,22.10
2018-08-24T07:36:18.776Z,21.92
2018-08-24T07:41:22.644Z,21.96
2018-08-24T07:46:26.458Z,22.48
2018-08-24T07:51:30.286Z,22.70
2018-08-24T07:56:34.115Z,22.65
2018-08-24T08:01:37.841Z,22.72
2018-08-24T08:06:41.708Z,22.58
2018-08-24T08:11:45.410Z,22.57
2018-08-24T08:16:53.214Z,22.63
2018-08-24T08:21:57.484Z,22.60
2018-08-24T08:27:01.213Z,22.61
2018-08-24T08:32:04.976Z,22.82
2018-08-24T08:37:08.702Z,22.81
2018-08-24T08:42:12.378Z,22.72
2018-08-24T08:47:16.281Z,22.83
2018-08-24T08:52:20.002Z,22.98
2018-08-24T08:57:24.991Z,22.97
2018-08-24T09:02:34.080Z,23.03
2018-08-24T09:07:46.823Z,23.05
2018-08-24T09:12:50.703Z,23.01
2018-08-24T09:17:59.687Z,23.12
2018-08-24T09:23:08.682Z,23.30
2018-08-24T09:28:17.758Z,23.22
2018-08-24T09:33:21.615Z,23.30
2018-08-24T09:38:25.384Z,23.37
2018-08-24T09:43:35.317Z,23.67
2018-08-24T09:48:44.720Z,23.69
2018-08-24T09:53:55.224Z,23.64
2018-08-24T09:59:00.034Z,23.55
2018-08-24T10:04:09.117Z,23.59
2018-08-24T10:09:14.804Z,23.59
2018-08-24T10:14:41.426Z,23.61
2018-08-24T10:19:45.239Z,23.65
2018-08-24T10:24:51.762Z,23.74
2018-08-24T10:37:59.864Z,24.04
2018-08-24T10:43:13.900Z,24.18
2018-08-24T10:48:17.658Z,24.47
2018-08-24T10:53:21.359Z,24.79
2018-08-24T10:58:25.163Z,24.85
2018-08-24T11:03:29.104Z,24.89
2018-08-24T11:08:33.088Z,24.93
2018-08-24T11:13:37.990Z,24.93
2018-08-24T11:18:41.665Z,24.95
2018-08-24T11:23:45.679Z,24.99
2018-08-24T11:28:50.281Z,25.02
2018-08-24T11:33:54.359Z,25.07
2018-08-24T11:38:58.192Z,25.14
2018-08-24T11:44:02.381Z,25.06
2018-08-24T11:49:06.193Z,25.14
2018-08-24T11:54:09.954Z,25.15
2018-08-24T11:59:13.641Z,25.19
2018-08-24T12:04:17.737Z,25.26
2018-08-24T12:09:22.599Z,25.33
2018-08-24T12:14:26.721Z,25.35
2018-08-24T12:19:30.477Z,25.35
2018-08-24T12:24:34.148Z,25.40
2018-08-24T12:29:37.910Z,25.43
2018-08-24T12:34:41.808Z,25.47
2018-08-24T12:39:47.801Z,25.44
2018-08-24T12:44:51.620Z,25.43
2018-08-24T12:49:55.515Z,25.49
2018-08-24T12:54:59.357Z,25.54
2018-08-24T13:00:06.122Z,25.54
2018-08-24T13:05:10.281Z,25.50
2018-08-24T13:10:14.331Z,25.48
2018-08-24T13:15:18.227Z,25.57
2018-08-24T13:20:22.584Z,25.43
2018-08-24T13:25:26.216Z,25.50
2018-08-24T13:30:30.116Z,25.57
2018-08-24T13:35:34.723Z,25.19
2018-08-24T13:40:42.280Z,25.46
2018-08-24T13:45:46.009Z,25.53
2018-08-24T13:50:56.553Z,25.46
2018-08-24T13:56:00.413Z,25.45
2018-08-24T14:01:04.155Z,25.47
2018-08-24T14:06:08.086Z,25.48
2018-08-24T14:11:11.867Z,25.51
2018-08-24T14:16:15.533Z,25.56
2018-08-24T14:21:19.251Z,25.58
2018-08-24T14:26:22.874Z,25.59
2018-08-24T14:31:26.769Z,25.73
2018-08-24T14:36:30.439Z,25.73
2018-08-24T14:41:34.259Z,25.69
2018-08-24T14:46:37.968Z,25.69
2018-08-24T14:51:41.830Z,25.67
2018-08-24T14:56:45.743Z,25.68
2018-08-24T15:01:49.683Z,25.71
2018-08-24T15:06:53.806Z,25.73
2018-08-24T15:11:57.533Z,25.72
2018-08-24T15:17:01.931Z,25.73
2018-08-24T15:22:05.946Z,25.78
2018-08-24T15:27:09.563Z,25.79
2018-08-24T15:32:13.271Z,25.82
2018-08-24T15:37:17.463Z,25.82
2018-08-24T15:42:23.004Z,25.83
2018-08-24T15:47:26.748Z,25.85
2018-08-24T15:52:30.578Z,25.87
2018-08-24T15:57:34.607Z,25.89
2018-08-24T16:02:43.559Z,25.91
2018-08-24T16:07:47.454Z,25.96
2018-08-24T16:12:53.137Z,26.03
2018-08-24T16:28:53.802Z,25.70
2018-08-24T16:33:57.494Z,24.38
2018-08-24T16:39:01.101Z,24.41
2018-08-24T16:44:06.122Z,24.13
2018-08-24T16:49:09.715Z,23.81
2018-08-24T16:54:13.670Z,23.25
2018-08-24T16:59:17.494Z,22.90
2018-08-24T17:04:21.236Z,23.42
2018-08-24T17:09:24.846Z,24.03
2018-08-24T17:14:28.483Z,23.56
2018-08-24T17:19:32.988Z,24.02
2018-08-24T17:24:36.638Z,24.39
2018-08-24T17:29:40.300Z,24.49
2018-08-24T17:34:43.994Z,24.52
2018-08-24T17:39:47.687Z,24.36
2018-08-24T17:44:51.464Z,24.33
2018-08-24T17:49:55.275Z,24.01
2018-08-24T17:54:58.938Z,23.86
2018-08-24T18:00:03.072Z,24.14
2018-08-24T18:05:06.775Z,24.18
2018-08-24T18:10:10.482Z,24.01
2018-08-24T18:15:14.279Z,24.04
2018-08-24T18:20:17.888Z,24.05
2018-08-24T18:25:21.705Z,24.30
2018-08-24T18:30:25.412Z,24.52
2018-08-24T18:35:29.150Z,24.76
2018-08-24T18:40:32.928Z,24.32
2018-08-24T18:45:36.923Z,24.29
2018-08-24T18:50:40.711Z,24.85
2018-08-24T19:06:49.666Z,24.20
2018-08-24T19:17:35.482Z,24.21
2018-08-24T19:22:44.338Z,24.67
2018-08-24T19:40:47.729Z,24.41
2018-08-24T20:02:40.003Z,24.13
2018-08-24T20:07:48.844Z,24.03
2018-08-24T20:12:55.516Z,24.03
2018-08-24T20:17:59.472Z,24.42
2018-08-24T20:23:05.080Z,24.16
2018-08-24T20:28:08.999Z,24.13
2018-08-24T20:33:13.554Z,24.20
2018-08-24T20:38:17.417Z,24.55
2018-08-24T20:43:21.237Z,24.70
2018-08-24T20:48:24.998Z,24.57
2018-08-24T20:53:28.873Z,24.20
2018-08-24T20:58:32.735Z,24.10
2018-08-24T21:03:38.332Z,23.97
2018-08-24T21:08:42.145Z,23.90
2018-08-24T21:13:46.465Z,24.09
2018-08-24T21:18:50.231Z,24.02
2018-08-24T21:23:53.982Z,24.11
2018-08-24T21:28:57.789Z,24.13
2018-08-24T21:34:01.550Z,24.20
2018-08-24T21:39:09.685Z,24.72
2018-08-24T21:44:13.690Z,24.54
2018-08-24T21:49:18.451Z,24.40
2018-08-24T21:54:22.332Z,24.44
2018-08-24T21:59:26.124Z,24.45
2018-08-24T22:04:29.887Z,24.41
2018-08-24T22:09:34.680Z,24.44
2018-08-24T22:14:38.576Z,24.44
2018-08-24T22:19:42.497Z,24.77
2018-08-24T22:24:46.385Z,24.92
2018-08-24T22:29:50.219Z,24.97
2018-08-24T22:34:54.016Z,25.01
2018-08-24T22:39:57.802Z,25.04
2018-08-24T22:45:03.201Z,25.05
2018-08-24T22:50:08.271Z,25.12
2018-08-24T22:55:13.009Z,25.13
2018-08-24T23:00:16.842Z,25.14
2018-08-24T23:05:20.602Z,25.16
2018-08-24T23:10:24.428Z,25.17
2018-08-24T23:15:28.229Z,25.22
2018-08-24T23:20:32.153Z,25.24
2018-08-24T23:25:35.993Z,25.26
2018-08-24T23:30:39.859Z,25.22
2018-08-24T23:35:43.645Z,25.24
2018-08-24T23:40:47.527Z,25.26
2018-08-24T23:45:51.342Z,25.29
2018-08-24T23:50:55.198Z,25.30
2018-08-24T23:55:58.994Z,25.29
